createdAt,value
2023-02-05T00:03:08.968Z,1027.632
2023-02-05T00:23:08.063Z,1027.369
2023-02-05T00:43:07.790Z,1027.015
2023-02-05T01:03:08.665Z,1026.767
2023-02-05T01:23:07.642Z,1026.599
2023-02-05T01:43:07.465Z,1026.204
2023-02-05T02:03:08.445Z,1026.312
2023-02-05T02:23:07.534Z,1026.073
2023-02-05T02:43:07.463Z,1026.062
2023-02-05T03:03:08.261Z,1026.016
2023-02-05T03:23:08.082Z,1025.725
2023-02-05T03:43:07.997Z,1025.436
2023-02-05T04:03:08.669Z,1025.644
2023-02-05T04:23:07.626Z,1025.662
2023-02-05T04:43:07.540Z,1025.638
2023-02-05T05:03:08.380Z,1025.584
2023-02-05T05:23:07.369Z,1025.379
2023-02-05T05:43:07.512Z,1025.028
2023-02-05T06:03:08.563Z,1025.058
2023-02-05T06:23:07.366Z,1024.884
2023-02-05T06:43:07.337Z,1024.764
2023-02-05T07:03:08.169Z,1024.733
2023-02-05T07:23:08.217Z,1024.544
2023-02-05T07:43:08.117Z,1024.563
2023-02-05T08:03:09.135Z,1024.41
2023-02-05T08:23:08.127Z,1024.473
2023-02-05T08:43:08.037Z,1024.38
2023-02-05T09:03:08.902Z,1024.327
2023-02-05T09:23:07.710Z,1024.273
2023-02-05T09:43:07.560Z,1024.095
2023-02-05T10:03:08.544Z,1024.148
2023-02-05T10:23:07.444Z,1024.205
2023-02-05T10:43:07.442Z,1024.08
2023-02-05T11:03:08.370Z,1024.322
2023-02-05T11:23:07.358Z,1024.626
2023-02-05T11:43:07.257Z,1024.719
2023-02-05T12:03:08.182Z,1024.869
2023-02-05T12:23:08.062Z,1025.02
2023-02-05T12:43:08.081Z,1025.151
2023-02-05T13:03:09.008Z,1024.976
2023-02-05T13:23:07.885Z,1025.21
2023-02-05T13:43:08.061Z,1025.547
2023-02-05T14:03:09.078Z,1026.038
2023-02-05T14:23:07.885Z,1026.086
2023-02-05T14:43:11.441Z,1026.443
2023-02-05T15:03:08.269Z,1026.399
2023-02-05T15:23:07.366Z,1026.53
2023-02-05T15:43:07.517Z,1026.955
2023-02-05T16:03:08.956Z,1027.194
2023-02-05T16:23:07.950Z,1027.507
2023-02-05T16:43:07.984Z,1027.635
2023-02-05T17:03:08.831Z,1028.051
2023-02-05T17:23:07.731Z,1028.318
2023-02-05T17:43:07.706Z,1028.657
2023-02-05T18:03:08.771Z,1028.945
2023-02-05T18:23:07.673Z,1029.016
2023-02-05T18:43:07.780Z,1029.191
2023-02-05T19:03:08.854Z,1029.233
2023-02-05T19:23:07.751Z,1029.589
2023-02-05T19:43:07.811Z,1029.779
2023-02-05T20:03:08.870Z,1030.226
2023-02-05T20:23:07.685Z,1030.168
2023-02-05T20:43:07.821Z,1030.397
2023-02-05T21:03:08.818Z,1030.442
2023-02-05T21:23:07.733Z,1030.424
2023-02-05T21:43:07.835Z,1030.754
2023-02-05T22:03:08.877Z,1031.07
2023-02-05T22:23:08.037Z,1031.061
2023-02-05T22:43:07.370Z,1031.019
2023-02-05T23:03:08.852Z,1031.263
2023-02-05T23:23:07.743Z,1031.263
2023-02-05T23:43:07.391Z,1031.246
